Terminal Aerodrome Forecast
Issued by NWS

Home | Current Version | Previous Version | Text Only | Print | Product List | Glossary On
Versions: 1 2 3 4 5 6 7 8 9 10 11 12 13 14
000
FTUS42 TJSJ 192341
TAFJBQ
TAF
TJBQ 192341Z 2000/2024 06015G25KT P6SM VCSH SCT015 BKN025
      TEMPO 2003/2007 -SHRA
     FM200700 01030G50KT 5SM TSRA SCT015 BKN025CB
     FM201100 02050G80KT 1SM +TSRA SCT015 OVC025CB
     FM201800 34080G110KT 1SM +TSRA SCT015 OVC025CB
     FM202100 25040G60KT 3SM SHRA SCT015 BKN025=

USA.gov is the U.S. government's official web portal to all federal, state and local government web resources and services.